createdAt,value
2018-03-18T00:01:53.131Z,-0.90
2018-03-18T00:04:25.630Z,-0.86
2018-03-18T00:06:58.098Z,-0.67
2018-03-18T00:09:30.596Z,-0.93
2018-03-18T00:12:03.075Z,-1.18
2018-03-18T00:14:35.741Z,-0.76
2018-03-18T00:17:33.470Z,-1.41
2018-03-18T00:20:09.041Z,-1.05
2018-03-18T00:22:41.671Z,-0.89
2018-03-18T00:25:14.311Z,-1.17
2018-03-18T00:27:46.787Z,-1.63
2018-03-18T00:30:19.283Z,-1.22
2018-03-18T00:32:51.755Z,-1.06
2018-03-18T00:35:24.251Z,-1.26
2018-03-18T00:37:56.728Z,-1.60
2018-03-18T00:40:29.225Z,-0.81
2018-03-18T00:43:01.707Z,-1.00
2018-03-18T00:45:34.259Z,-1.10
2018-03-18T00:48:07.063Z,-1.14
2018-03-18T00:50:39.609Z,-1.12
2018-03-18T00:53:12.178Z,-1.10
2018-03-18T00:55:44.777Z,-1.96
2018-03-18T00:58:17.322Z,-1.93
2018-03-18T01:00:49.806Z,-1.01
2018-03-18T01:03:22.301Z,-1.27
2018-03-18T01:05:54.771Z,-1.43
2018-03-18T01:08:27.271Z,-0.92
2018-03-18T01:10:59.745Z,-1.17
2018-03-18T01:13:32.236Z,-1.18
2018-03-18T01:16:04.985Z,-1.40
2018-03-18T01:18:37.802Z,-1.43
2018-03-18T01:21:10.404Z,-1.83
2018-03-18T01:23:43.048Z,-1.36
2018-03-18T01:26:15.555Z,-1.55
2018-03-18T01:28:48.059Z,-1.45
2018-03-18T01:31:20.535Z,-1.64
2018-03-18T01:33:53.031Z,-1.30
2018-03-18T01:36:25.526Z,-1.28
2018-03-18T01:38:58.028Z,-1.49
2018-03-18T01:41:30.504Z,-1.46
2018-03-18T01:44:03.007Z,-1.08
2018-03-18T01:46:35.851Z,-1.33
2018-03-18T01:49:08.601Z,-1.29
2018-03-18T01:51:41.161Z,-1.60
2018-03-18T01:54:13.830Z,-1.63
2018-03-18T01:56:46.392Z,-2.33
2018-03-18T01:59:18.931Z,-1.75
2018-03-18T02:01:51.412Z,-1.33
2018-03-18T02:04:23.915Z,-1.55
2018-03-18T02:06:56.398Z,-1.57
2018-03-18T02:09:28.889Z,-1.81
2018-03-18T02:12:01.376Z,-1.51
2018-03-18T02:14:33.874Z,-1.60
2018-03-18T02:17:06.605Z,-1.73
2018-03-18T02:19:39.756Z,-1.40
2018-03-18T02:22:13.059Z,-1.67
2018-03-18T02:24:45.626Z,-1.23
2018-03-18T02:27:18.719Z,-1.41
2018-03-18T02:29:51.269Z,-1.56
2018-03-18T02:32:23.751Z,-1.75
2018-03-18T02:34:56.261Z,-1.76
2018-03-18T02:37:28.742Z,-1.65
2018-03-18T02:40:01.232Z,-1.65
2018-03-18T02:42:33.708Z,-1.83
2018-03-18T02:45:06.443Z,-1.66
2018-03-18T02:47:39.185Z,-1.93
2018-03-18T02:50:11.806Z,-1.53
2018-03-18T02:52:44.441Z,-1.75
2018-03-18T02:55:17.912Z,-1.47
2018-03-18T02:57:50.410Z,-1.83
2018-03-18T03:00:22.910Z,-1.52
2018-03-18T03:02:55.388Z,-1.82
2018-03-18T03:05:27.885Z,-1.45
2018-03-18T03:08:00.354Z,-1.50
2018-03-18T03:10:32.851Z,-1.75
2018-03-18T03:13:05.522Z,-1.56
2018-03-18T03:15:39.072Z,-2.20
2018-03-18T03:18:11.643Z,-1.81
2018-03-18T03:20:44.264Z,-1.67
2018-03-18T03:23:16.833Z,-2.13
2018-03-18T03:25:49.366Z,-1.82
2018-03-18T03:28:21.850Z,-1.53
2018-03-18T03:30:54.347Z,-1.44
2018-03-18T03:33:26.825Z,-1.97
2018-03-18T03:35:59.336Z,-1.52
2018-03-18T03:38:31.804Z,-1.82
2018-03-18T03:41:04.415Z,-1.86
2018-03-18T03:43:37.084Z,-2.11
2018-03-18T03:46:09.716Z,-2.80
2018-03-18T03:48:42.285Z,-1.80
2018-03-18T03:51:14.842Z,-2.02
2018-03-18T03:53:47.331Z,-1.80
2018-03-18T03:56:19.827Z,-2.11
2018-03-18T03:58:52.309Z,-1.89
2018-03-18T04:01:24.804Z,-2.16
2018-03-18T04:03:57.283Z,-1.92
2018-03-18T04:06:29.778Z,-2.13
2018-03-18T04:09:02.259Z,-2.07
2018-03-18T04:11:34.878Z,-2.12
2018-03-18T04:14:07.522Z,-2.00
2018-03-18T04:16:40.195Z,-1.91
2018-03-18T04:19:12.796Z,-2.32
2018-03-18T04:21:45.358Z,-2.30
2018-03-18T04:24:17.850Z,-2.11
2018-03-18T04:26:50.347Z,-1.89
2018-03-18T04:29:22.819Z,-2.11
2018-03-18T04:31:55.306Z,-2.45
2018-03-18T04:34:27.782Z,-2.58
2018-03-18T04:37:00.279Z,-2.25
2018-03-18T04:39:32.786Z,-1.71
2018-03-18T04:42:05.435Z,-2.52
2018-03-18T04:44:38.291Z,-2.33
2018-03-18T04:47:10.832Z,-2.75
2018-03-18T04:49:43.383Z,-2.40
2018-03-18T04:52:15.870Z,-2.22
2018-03-18T04:54:48.362Z,-2.21
2018-03-18T04:57:20.839Z,-2.28
2018-03-18T04:59:53.339Z,-2.27
2018-03-18T05:02:25.822Z,-2.09
2018-03-18T05:04:58.326Z,-2.05
2018-03-18T05:07:30.812Z,-2.16
2018-03-18T05:10:03.306Z,-3.08
2018-03-18T05:12:35.898Z,-2.32
2018-03-18T05:15:08.680Z,-2.19
2018-03-18T05:17:41.346Z,-2.30
2018-03-18T05:20:13.926Z,-2.80
2018-03-18T05:22:46.435Z,-2.59
2018-03-18T05:25:18.987Z,-2.49
2018-03-18T05:27:51.463Z,-2.10
2018-03-18T05:30:23.950Z,-2.56
2018-03-18T05:32:56.423Z,-2.19
2018-03-18T05:35:28.914Z,-2.10
2018-03-18T05:38:01.397Z,-2.66
2018-03-18T05:40:33.887Z,-2.34
2018-03-18T05:43:06.786Z,-3.66
2018-03-18T05:45:39.499Z,-2.22
2018-03-18T05:48:12.088Z,-2.38
2018-03-18T05:50:44.649Z,-2.15
2018-03-18T05:53:17.169Z,-2.49
2018-03-18T05:55:49.665Z,-2.76
2018-03-18T05:58:22.144Z,-2.54
2018-03-18T06:00:54.638Z,-2.27
2018-03-18T06:03:27.115Z,-2.34
2018-03-18T06:05:59.608Z,-2.30
2018-03-18T06:08:32.078Z,-2.44
2018-03-18T06:11:04.640Z,-2.11
2018-03-18T06:13:37.341Z,-2.64
2018-03-18T06:16:09.972Z,-2.48
2018-03-18T06:18:42.501Z,-2.37
2018-03-18T06:21:15.023Z,-2.90
2018-03-18T06:23:47.515Z,-2.19
2018-03-18T06:26:20.019Z,-2.38
2018-03-18T06:28:52.490Z,-1.80
2018-03-18T06:31:25.012Z,-1.76
2018-03-18T06:33:57.483Z,-2.20
2018-03-18T06:36:29.970Z,-1.85
2018-03-18T06:39:02.439Z,-2.07
2018-03-18T06:41:35.041Z,-2.18
2018-03-18T06:44:08.195Z,-1.70
2018-03-18T06:46:40.762Z,-2.48
2018-03-18T06:49:13.286Z,-1.74
2018-03-18T06:51:45.889Z,-1.48
2018-03-18T06:54:18.371Z,-2.85
2018-03-18T06:56:50.871Z,-1.68
2018-03-18T06:59:23.394Z,-1.66
2018-03-18T07:01:55.886Z,-2.38
2018-03-18T07:04:28.358Z,-2.24
2018-03-18T07:07:00.870Z,-1.79
2018-03-18T07:09:33.348Z,-1.78
2018-03-18T07:12:06.172Z,-1.36
2018-03-18T07:14:38.875Z,-1.43
2018-03-18T07:17:11.562Z,-0.93
2018-03-18T07:19:44.149Z,-1.27
2018-03-18T07:22:16.764Z,-1.38
2018-03-18T07:24:49.302Z,-0.94
2018-03-18T07:27:21.813Z,-1.82
2018-03-18T07:29:54.298Z,-0.95
2018-03-18T07:32:26.793Z,-2.18
2018-03-18T07:34:59.262Z,-1.83
2018-03-18T07:37:31.762Z,-0.63
2018-03-18T07:40:04.554Z,-1.73
2018-03-18T07:42:37.650Z,-1.01
2018-03-18T07:45:10.291Z,-1.12
2018-03-18T07:47:42.942Z,-1.32
2018-03-18T07:50:15.540Z,-1.18
2018-03-18T07:52:48.101Z,-0.79
2018-03-18T07:55:20.602Z,-0.36
2018-03-18T07:57:53.096Z,-0.39
2018-03-18T08:00:25.574Z,-0.43
2018-03-18T08:02:58.075Z,-0.62
2018-03-18T08:05:30.560Z,-0.44
2018-03-18T08:08:03.058Z,-0.85
2018-03-18T08:10:35.794Z,-0.97
2018-03-18T08:13:08.676Z,-0.78
2018-03-18T08:15:41.277Z,-1.15
2018-03-18T08:18:13.846Z,-0.57
2018-03-18T08:20:46.388Z,-0.98
2018-03-18T08:23:18.978Z,-1.02
2018-03-18T08:25:51.478Z,-0.37
2018-03-18T08:28:23.956Z,-0.42
2018-03-18T08:30:56.442Z,-0.29
2018-03-18T08:33:28.915Z,-0.45
2018-03-18T08:36:01.415Z,-0.10
2018-03-18T08:38:33.901Z,0.17
2018-03-18T08:41:06.760Z,0.16
2018-03-18T08:43:39.595Z,-0.07
2018-03-18T08:46:12.229Z,0.03
2018-03-18T08:48:44.743Z,-0.68
2018-03-18T08:51:17.276Z,-0.22
2018-03-18T08:53:49.750Z,0.02
2018-03-18T08:56:22.238Z,0.40
2018-03-18T08:58:54.712Z,0.63
2018-03-18T09:01:27.211Z,0.93
2018-03-18T09:03:59.684Z,0.48
2018-03-18T09:06:32.175Z,0.76
2018-03-18T09:09:04.913Z,1.05
2018-03-18T09:11:38.123Z,0.56
2018-03-18T09:14:10.732Z,1.02
2018-03-18T09:16:43.274Z,1.04
2018-03-18T09:19:15.902Z,0.87
2018-03-18T09:21:48.474Z,0.70
2018-03-18T09:24:20.988Z,1.13
2018-03-18T09:26:53.493Z,0.43
2018-03-18T09:29:26.495Z,0.87
2018-03-18T09:31:58.998Z,0.84
2018-03-18T09:34:31.472Z,0.29
2018-03-18T09:37:03.985Z,0.96
2018-03-18T09:39:36.759Z,1.40
2018-03-18T09:42:09.567Z,0.43
2018-03-18T09:44:42.196Z,0.23
2018-03-18T09:47:14.766Z,1.09
2018-03-18T09:49:47.429Z,0.95
2018-03-18T09:52:19.938Z,0.83
2018-03-18T09:54:52.397Z,1.15
2018-03-18T09:57:24.883Z,1.02
2018-03-18T09:59:57.350Z,1.43
2018-03-18T10:02:29.877Z,0.77
2018-03-18T10:05:02.327Z,0.88
2018-03-18T10:07:35.183Z,0.78
2018-03-18T10:10:07.783Z,0.80
2018-03-18T10:12:40.868Z,1.22
2018-03-18T10:15:13.428Z,2.11
2018-03-18T10:17:46.151Z,1.62
2018-03-18T10:20:18.667Z,1.91
2018-03-18T10:22:51.167Z,1.87
2018-03-18T10:25:23.640Z,2.14
2018-03-18T10:27:56.155Z,1.44
2018-03-18T10:30:28.626Z,1.87
2018-03-18T10:33:01.118Z,1.65
2018-03-18T10:35:33.588Z,1.98
2018-03-18T10:38:06.229Z,1.37
2018-03-18T10:40:39.349Z,1.58
2018-03-18T10:43:11.919Z,0.41
2018-03-18T10:45:44.509Z,1.37
2018-03-18T10:48:17.049Z,2.20
2018-03-18T10:50:49.541Z,1.95
2018-03-18T10:53:22.029Z,2.45
2018-03-18T10:55:54.505Z,1.90
2018-03-18T10:58:27.004Z,2.05
2018-03-18T11:01:05.143Z,2.30
2018-03-18T11:03:40.402Z,1.47
2018-03-18T11:06:12.927Z,2.20
2018-03-18T11:08:45.552Z,2.74
2018-03-18T11:11:18.056Z,2.29
2018-03-18T11:13:51.380Z,1.11
2018-03-18T11:16:23.857Z,2.25
2018-03-18T11:18:56.356Z,2.87
2018-03-18T11:21:28.830Z,3.32
2018-03-18T11:24:01.324Z,2.73
2018-03-18T11:26:33.808Z,2.20
2018-03-18T11:29:06.434Z,1.52
2018-03-18T11:31:39.078Z,2.07
2018-03-18T11:34:26.443Z,2.07
2018-03-18T11:36:58.940Z,2.24
2018-03-18T11:39:31.414Z,3.33
2018-03-18T11:42:03.907Z,2.94
2018-03-18T11:44:36.517Z,2.71
2018-03-18T11:47:09.067Z,3.01
2018-03-18T11:49:41.567Z,2.44
2018-03-18T11:52:14.096Z,2.95
2018-03-18T11:54:46.577Z,2.54
2018-03-18T11:57:19.127Z,2.81
2018-03-18T11:59:51.602Z,2.60
2018-03-18T12:02:24.096Z,3.12
2018-03-18T12:04:56.564Z,3.03
2018-03-18T12:07:29.046Z,4.02
2018-03-18T12:10:01.519Z,3.59
2018-03-18T12:12:34.014Z,2.88
2018-03-18T12:15:06.567Z,3.05
2018-03-18T12:17:39.233Z,3.02
2018-03-18T12:20:11.743Z,3.40
2018-03-18T12:22:44.250Z,3.21
2018-03-18T12:25:16.735Z,3.62
2018-03-18T12:27:49.234Z,4.19
2018-03-18T12:30:21.706Z,4.45
2018-03-18T12:32:54.190Z,3.92
2018-03-18T12:35:26.667Z,3.63
2018-03-18T12:37:59.165Z,3.36
2018-03-18T12:40:33.447Z,2.70
2018-03-18T12:43:17.891Z,3.35
2018-03-18T12:45:50.360Z,3.34
2018-03-18T12:48:22.854Z,3.79
2018-03-18T12:50:55.334Z,4.41
2018-03-18T12:53:27.825Z,3.89
2018-03-18T12:56:00.299Z,5.06
2018-03-18T12:58:32.860Z,4.12
2018-03-18T13:01:05.398Z,3.78
2018-03-18T13:03:38.140Z,3.19
2018-03-18T13:06:10.693Z,3.30
2018-03-18T13:08:43.191Z,4.24
2018-03-18T13:11:15.662Z,3.45
2018-03-18T13:13:48.167Z,3.98
2018-03-18T13:16:20.653Z,3.89
2018-03-18T13:18:53.151Z,3.94
2018-03-18T13:21:25.626Z,4.11
2018-03-18T13:23:58.123Z,3.81
2018-03-18T13:26:30.591Z,3.74
2018-03-18T13:29:03.079Z,3.68
2018-03-18T13:31:35.562Z,4.05
2018-03-18T13:34:08.116Z,4.03
2018-03-18T13:36:40.595Z,3.92
2018-03-18T13:39:13.116Z,3.91
2018-03-18T13:41:45.597Z,3.83
2018-03-18T13:44:18.088Z,4.30
2018-03-18T13:46:50.564Z,4.86
2018-03-18T13:49:23.065Z,4.51
2018-03-18T13:51:55.535Z,4.35
2018-03-18T13:54:28.067Z,3.67
2018-03-18T13:57:00.524Z,3.34
2018-03-18T13:59:33.012Z,3.19
2018-03-18T14:02:05.490Z,3.80
2018-03-18T14:04:38.044Z,3.92
2018-03-18T14:07:10.522Z,3.99
2018-03-18T14:09:43.029Z,3.75
2018-03-18T14:12:15.497Z,3.63
2018-03-18T14:14:47.996Z,3.97
2018-03-18T14:17:21.319Z,3.82
2018-03-18T14:19:53.808Z,4.33
2018-03-18T14:22:26.275Z,3.92
2018-03-18T14:24:58.772Z,4.71
2018-03-18T14:27:31.248Z,3.21
2018-03-18T14:30:03.734Z,3.25
2018-03-18T14:32:36.252Z,4.07
2018-03-18T14:35:08.796Z,4.49
2018-03-18T14:37:41.274Z,3.64
2018-03-18T14:40:13.787Z,4.37
2018-03-18T14:42:46.259Z,4.50
2018-03-18T14:45:18.754Z,4.08
2018-03-18T14:47:51.246Z,4.30
2018-03-18T14:50:23.747Z,4.04
2018-03-18T14:52:56.223Z,3.55
2018-03-18T14:55:28.731Z,3.43
2018-03-18T14:58:01.202Z,3.12
2018-03-18T15:00:33.693Z,3.58
2018-03-18T15:03:06.178Z,3.00
2018-03-18T15:05:38.671Z,3.55
2018-03-18T15:08:11.143Z,3.78
2018-03-18T15:10:43.655Z,3.91
2018-03-18T15:13:16.132Z,4.04
2018-03-18T15:15:48.625Z,3.18
2018-03-18T15:18:21.112Z,3.41
2018-03-18T15:20:53.624Z,3.67
2018-03-18T15:23:26.118Z,4.08
2018-03-18T15:25:58.626Z,4.06
2018-03-18T15:28:31.100Z,3.44
2018-03-18T15:31:03.590Z,3.66
2018-03-18T15:33:36.138Z,2.76
2018-03-18T15:36:08.726Z,3.54
2018-03-18T15:38:41.230Z,3.76
2018-03-18T15:41:13.755Z,3.78
2018-03-18T15:43:46.222Z,3.60
2018-03-18T15:46:18.711Z,3.84
2018-03-18T15:48:51.182Z,3.40
2018-03-18T15:51:23.773Z,3.76
2018-03-18T15:53:56.158Z,3.48
2018-03-18T15:56:28.648Z,3.06
2018-03-18T15:59:01.161Z,3.20
2018-03-18T16:01:33.635Z,3.18
2018-03-18T16:04:06.285Z,3.30
2018-03-18T16:06:38.799Z,3.50
2018-03-18T16:09:11.326Z,3.33
2018-03-18T16:11:43.838Z,2.61
2018-03-18T16:14:16.335Z,2.76
2018-03-18T16:16:48.804Z,3.25
2018-03-18T16:19:21.296Z,3.11
2018-03-18T16:21:53.770Z,2.69
2018-03-18T16:24:26.264Z,2.91
2018-03-18T16:26:58.739Z,2.78
2018-03-18T16:29:43.018Z,2.65
2018-03-18T16:32:15.503Z,2.51
2018-03-18T16:34:47.999Z,3.03
2018-03-18T16:37:21.331Z,3.05
2018-03-18T16:39:53.823Z,2.63
2018-03-18T16:42:26.315Z,3.15
2018-03-18T16:44:58.811Z,1.93
2018-03-18T16:47:31.288Z,2.96
2018-03-18T16:50:03.804Z,2.68
2018-03-18T16:52:36.329Z,2.58
2018-03-18T16:55:08.908Z,2.99
2018-03-18T16:57:41.414Z,2.72
2018-03-18T17:00:13.971Z,3.13
2018-03-18T17:02:46.447Z,3.09
2018-03-18T17:05:18.942Z,2.99
2018-03-18T17:07:51.406Z,3.13
2018-03-18T17:10:23.895Z,2.88
2018-03-18T17:12:56.370Z,3.02
2018-03-18T17:15:28.863Z,2.87
2018-03-18T17:18:01.452Z,2.66
2018-03-18T17:20:33.930Z,2.63
2018-03-18T17:23:06.491Z,1.66
2018-03-18T17:25:39.031Z,2.69
2018-03-18T17:28:11.601Z,2.78
2018-03-18T17:30:44.143Z,2.42
2018-03-18T17:33:16.625Z,2.58
2018-03-18T17:35:49.112Z,2.67
2018-03-18T17:38:21.587Z,2.73
2018-03-18T17:40:54.078Z,2.82
2018-03-18T17:43:26.553Z,2.64
2018-03-18T17:46:10.768Z,2.99
2018-03-18T17:48:55.199Z,2.67
2018-03-18T17:51:39.488Z,2.68
2018-03-18T17:54:23.783Z,2.96
2018-03-18T17:56:56.294Z,2.84
2018-03-18T17:59:28.767Z,2.91
2018-03-18T18:02:01.266Z,2.57
2018-03-18T18:04:33.759Z,2.81
2018-03-18T18:07:06.310Z,2.85
2018-03-18T18:09:38.854Z,2.75
2018-03-18T18:12:11.414Z,2.70
2018-03-18T18:14:43.968Z,2.58
2018-03-18T18:17:16.468Z,2.66
2018-03-18T18:19:48.951Z,2.63
2018-03-18T18:22:21.443Z,2.88
2018-03-18T18:24:53.918Z,2.58
2018-03-18T18:27:26.412Z,2.69
2018-03-18T18:29:58.876Z,2.52
2018-03-18T18:32:31.366Z,2.70
2018-03-18T18:35:03.879Z,2.50
2018-03-18T18:37:36.418Z,2.42
2018-03-18T18:40:09.027Z,2.18
2018-03-18T18:42:41.579Z,2.46
2018-03-18T18:45:14.068Z,2.64
2018-03-18T18:47:46.583Z,2.14
2018-03-18T18:50:19.050Z,2.37
2018-03-18T18:52:51.540Z,2.49
2018-03-18T18:55:24.015Z,2.54
2018-03-18T18:57:56.503Z,2.56
2018-03-18T19:00:28.974Z,2.24
2018-03-18T19:03:01.498Z,2.34
2018-03-18T19:05:33.954Z,2.32
2018-03-18T19:08:06.526Z,2.33
2018-03-18T19:10:39.080Z,2.30
2018-03-18T19:13:11.716Z,2.28
2018-03-18T19:15:44.215Z,2.08
2018-03-18T19:18:16.733Z,2.29
2018-03-18T19:20:49.211Z,2.16
2018-03-18T19:23:21.700Z,2.36
2018-03-18T19:25:54.175Z,2.22
2018-03-18T19:28:26.660Z,2.26
2018-03-18T19:30:59.127Z,2.28
2018-03-18T19:33:31.654Z,1.94
2018-03-18T19:36:04.141Z,1.96
2018-03-18T19:38:36.869Z,1.85
2018-03-18T19:41:09.530Z,2.11
2018-03-18T19:43:42.069Z,2.03
2018-03-18T19:46:14.620Z,2.00
2018-03-18T19:48:47.093Z,2.11
2018-03-18T19:51:19.590Z,1.69
2018-03-18T19:53:52.058Z,1.10
2018-03-18T19:56:24.538Z,1.79
2018-03-18T19:58:57.008Z,1.81
2018-03-18T20:01:29.503Z,1.68
2018-03-18T20:04:01.977Z,1.69
2018-03-18T20:06:34.509Z,1.53
2018-03-18T20:09:07.235Z,1.84
2018-03-18T20:11:39.802Z,2.10
2018-03-18T20:14:12.282Z,1.56
2018-03-18T20:16:44.795Z,1.82
2018-03-18T20:19:17.266Z,1.91
2018-03-18T20:21:49.763Z,1.90
2018-03-18T20:24:22.246Z,1.93
2018-03-18T20:26:54.742Z,1.78
2018-03-18T20:29:27.218Z,1.81
2018-03-18T20:31:59.706Z,1.74
2018-03-18T20:34:32.179Z,1.14
2018-03-18T20:37:04.685Z,1.42
2018-03-18T20:39:37.209Z,1.42
2018-03-18T20:42:09.801Z,1.38
2018-03-18T20:44:42.362Z,1.34
2018-03-18T20:47:14.926Z,1.06
2018-03-18T20:49:47.438Z,1.37
2018-03-18T20:52:19.944Z,1.47
2018-03-18T20:54:52.419Z,1.52
2018-03-18T20:57:24.915Z,1.57
2018-03-18T20:59:57.409Z,1.52
2018-03-18T21:02:29.903Z,1.42
2018-03-18T21:05:02.387Z,1.33
2018-03-18T21:07:34.958Z,1.39
2018-03-18T21:10:07.746Z,1.27
2018-03-18T21:12:40.287Z,1.37
2018-03-18T21:15:12.826Z,1.27
2018-03-18T21:17:45.401Z,1.30
2018-03-18T21:20:17.879Z,1.13
2018-03-18T21:22:50.372Z,1.13
2018-03-18T21:25:22.838Z,1.15
2018-03-18T21:27:55.386Z,1.16
2018-03-18T21:30:28.093Z,0.99
2018-03-18T21:33:00.615Z,1.04
2018-03-18T21:35:33.079Z,1.14
2018-03-18T21:38:05.702Z,1.23
2018-03-18T21:40:38.597Z,1.14
2018-03-18T21:43:11.342Z,0.98
2018-03-18T21:45:43.864Z,0.95
2018-03-18T21:48:16.377Z,0.93
2018-03-18T21:50:48.858Z,1.07
2018-03-18T21:53:21.346Z,0.92
2018-03-18T21:55:53.819Z,0.70
2018-03-18T21:58:26.316Z,0.85
2018-03-18T22:00:58.794Z,0.76
2018-03-18T22:03:31.286Z,0.73
2018-03-18T22:06:03.763Z,0.81
2018-03-18T22:08:36.350Z,0.81
2018-03-18T22:11:09.329Z,0.76
2018-03-18T22:13:41.947Z,0.77
2018-03-18T22:16:14.514Z,0.95
2018-03-18T22:18:47.022Z,0.77
2018-03-18T22:21:19.498Z,0.89
2018-03-18T22:23:51.987Z,0.76
2018-03-18T22:26:24.454Z,0.99
2018-03-18T22:28:56.998Z,0.61
2018-03-18T22:31:29.435Z,0.70
2018-03-18T22:34:01.931Z,0.55
2018-03-18T22:36:34.423Z,0.79
2018-03-18T22:39:07.131Z,0.78
2018-03-18T22:41:39.879Z,0.91
2018-03-18T22:44:12.387Z,0.76
2018-03-18T22:46:45.015Z,0.58
2018-03-18T22:49:17.575Z,0.51
2018-03-18T22:51:50.046Z,0.50
2018-03-18T22:54:22.535Z,0.55
2018-03-18T22:56:55.006Z,0.48
2018-03-18T22:59:27.501Z,0.41
2018-03-18T23:01:59.981Z,0.65
2018-03-18T23:04:32.474Z,0.48
2018-03-18T23:07:05.495Z,0.53
2018-03-18T23:09:38.356Z,0.66
2018-03-18T23:12:10.926Z,0.74
2018-03-18T23:14:43.520Z,0.54
2018-03-18T23:17:16.058Z,0.55
2018-03-18T23:19:48.530Z,0.27
2018-03-18T23:22:21.018Z,0.31
2018-03-18T23:24:53.489Z,0.29
2018-03-18T23:27:25.990Z,0.12
2018-03-18T23:29:58.453Z,0.43
2018-03-18T23:32:30.965Z,0.37
2018-03-18T23:35:03.443Z,0.37
2018-03-18T23:37:36.022Z,0.39
2018-03-18T23:40:08.671Z,0.23
2018-03-18T23:42:41.243Z,0.42
2018-03-18T23:45:13.820Z,0.22
2018-03-18T23:47:46.327Z,0.42
2018-03-18T23:50:18.821Z,0.48
2018-03-18T23:52:51.319Z,0.15
2018-03-18T23:55:23.791Z,0.15
2018-03-18T23:57:56.287Z,0.18
